Time;durP1;ratioP1;P1;durP2;ratioP2;P2;SDS_P1;SDS_P2;PMS_P1;PMS_P2;Temp;Humidity;BMP_temperature;BMP_pressure;BME280_temperature;BME280_humidity;BME280_pressure;Samples;Min_cycle;Max_cycle;Signal;HPM_P1;HPM_P2
2021/09/21 00:01:19;;;;;;;4.70;3.67;;;12.90;1.00;;;;;;5011599;28;20297;-51
2021/09/21 00:03:46;;;;;;;4.57;3.83;;;12.90;1.00;;;;;;5011955;28;20207;-51
2021/09/21 00:06:13;;;;;;;4.73;3.60;;;12.70;72.90;;;;;;5008393;28;20329;-51
2021/09/21 00:08:40;;;;;;;4.07;3.60;;;12.80;99.90;;;;;;5010576;28;20208;-51
2021/09/21 00:11:08;;;;;;;4.40;3.67;;;12.70;99.90;;;;;;5008318;28;20673;-51
2021/09/21 00:13:35;;;;;;;5.87;3.97;;;12.60;1.00;;;;;;5008782;28;20251;-51
2021/09/21 00:16:03;;;;;;;5.93;4.00;;;12.50;1.00;;;;;;5010341;28;20267;-50
2021/09/21 00:18:30;;;;;;;5.50;3.50;;;12.60;1.00;;;;;;5006813;28;20318;-51
2021/09/21 00:20:58;;;;;;;7.13;3.57;;;12.60;1.00;;;;;;5011794;28;20312;-51
2021/09/21 00:23:25;;;;;;;4.67;3.33;;;12.50;1.00;;;;;;5009141;28;20709;-51
2021/09/21 00:25:52;;;;;;;7.77;3.90;;;12.50;99.90;;;;;;5002073;28;20630;-51
2021/09/21 00:28:19;;;;;;;5.67;4.13;;;12.60;99.90;;;;;;5007687;28;20367;-51
2021/09/21 00:30:50;;;;;;;8.53;4.00;;;12.70;1.00;;;;;;5009027;28;20234;-51
2021/09/21 00:33:20;;;;;;;6.10;4.00;;;12.70;1.00;;;;;;5010443;28;20251;-51
2021/09/21 00:35:51;;;;;;;8.80;3.90;;;12.70;1.00;;;;;;5009077;28;20282;-51
2021/09/21 00:38:21;;;;;;;5.37;3.57;;;12.60;1.00;;;;;;5010155;28;20325;-51
2021/09/21 00:40:49;;;;;;;4.93;3.50;;;12.50;1.00;;;;;;5009434;28;20235;-51
2021/09/21 00:43:23;;;;;;;5.43;3.97;;;12.50;1.00;;;;;;5009074;28;20314;-51
2021/09/21 00:45:52;;;;;;;4.87;3.67;;;12.60;1.00;;;;;;5010506;28;20231;-51
2021/09/21 00:48:20;;;;;;;5.00;3.80;;;12.50;1.00;;;;;;5015282;28;20260;-50
2021/09/21 00:50:49;;;;;;;5.93;3.70;;;12.20;99.90;;;;;;5016272;28;20727;-51
2021/09/21 00:53:16;;;;;;;3.87;3.57;;;12.10;1.00;;;;;;5015043;28;20225;-50
2021/09/21 00:55:43;;;;;;;7.80;4.00;;;11.90;99.90;;;;;;5013747;28;20278;-51
2021/09/21 00:58:10;;;;;;;4.77;3.83;;;12.00;99.90;;;;;;5012443;28;20248;-51
2021/09/21 01:00:37;;;;;;;6.30;4.13;;;12.10;99.90;;;;;;5010072;28;20584;-51
2021/09/21 01:03:04;;;;;;;4.40;4.00;;;12.10;99.90;;;;;;5007475;28;20740;-51
2021/09/21 01:05:33;;;;;;;4.67;3.90;;;12.00;99.90;;;;;;5003570;28;20216;-51
2021/09/21 01:08:00;;;;;;;4.87;3.93;;;12.00;1.00;;;;;;5005132;28;20297;-51
2021/09/21 01:10:29;;;;;;;6.93;4.50;;;12.10;99.90;;;;;;5007009;28;20274;-51
2021/09/21 01:12:57;;;;;;;5.83;3.80;;;12.00;3.00;;;;;;5006735;28;20289;-51
2021/09/21 01:15:24;;;;;;;4.53;3.83;;;11.90;1.00;;;;;;5014210;28;20246;-50
2021/09/21 01:17:52;;;;;;;4.73;3.77;;;11.80;99.90;;;;;;5012136;28;20237;-51
2021/09/21 01:20:19;;;;;;;5.40;4.10;;;11.80;99.90;;;;;;5009595;28;20234;-51
2021/09/21 01:22:46;;;;;;;5.47;4.27;;;11.90;99.90;;;;;;5010954;28;20604;-50
2021/09/21 01:25:14;;;;;;;6.20;4.07;;;12.10;1.00;;;;;;5009546;28;20694;-51
2021/09/21 01:27:42;;;;;;;5.47;3.90;;;12.10;1.00;;;;;;5013567;28;20197;-51
2021/09/21 01:30:12;;;;;;;4.60;3.90;;;12.00;99.90;;;;;;5011903;28;20262;-50
2021/09/21 01:32:39;;;;;;;5.60;3.47;;;12.10;99.90;;;;;;5009198;28;20301;-50
2021/09/21 01:35:07;;;;;;;7.50;4.13;;;12.10;99.90;;;;;;5011577;28;20196;-51
2021/09/21 01:37:33;;;;;;;6.00;3.63;;;12.10;99.90;;;;;;5013913;28;20307;-51
2021/09/21 01:40:00;;;;;;;6.37;4.20;;;12.10;48.90;;;;;;5011819;28;20317;-51
2021/09/21 01:42:27;;;;;;;4.63;3.70;;;11.90;1.00;;;;;;5013931;28;20922;-50
2021/09/21 01:44:54;;;;;;;4.03;3.53;;;11.90;1.00;;;;;;5015430;28;20255;-51
2021/09/21 01:47:21;;;;;;;6.40;4.27;;;11.90;99.90;;;;;;5009576;28;20304;-50
2021/09/21 01:52:28;;;;;;;4.13;3.63;;;12.00;1.00;;;;;;5013714;28;20318;-51
2021/09/21 02:00:13;;;;;;;5.57;3.83;;;12.10;1.00;;;;;;5011222;28;20258;-51
2021/09/21 02:02:40;;;;;;;4.33;3.47;;;12.20;99.90;;;;;;5009525;28;20357;-51
2021/09/21 02:05:08;;;;;;;6.40;4.27;;;12.20;99.90;;;;;;5013226;28;20665;-51
2021/09/21 02:07:35;;;;;;;5.53;3.70;;;12.10;1.00;;;;;;5013085;28;20230;-50
2021/09/21 02:10:03;;;;;;;7.23;3.83;;;12.10;1.00;;;;;;5011143;28;20267;-50
2021/09/21 02:12:29;;;;;;;5.10;4.27;;;12.00;1.00;;;;;;5009625;28;20705;-50
2021/09/21 02:14:59;;;;;;;5.23;4.13;;;11.80;1.00;;;;;;5012096;28;20230;-50
2021/09/21 02:17:27;;;;;;;5.03;4.20;;;11.80;1.00;;;;;;5008415;28;20282;-50
2021/09/21 02:19:53;;;;;;;5.43;4.07;;;11.80;1.00;;;;;;5013120;28;20238;-51
2021/09/21 02:22:20;;;;;;;5.27;3.87;;;11.90;1.00;;;;;;5010239;28;20229;-50
2021/09/21 02:24:47;;;;;;;5.97;4.17;;;11.90;99.90;;;;;;5011138;28;20261;-50
2021/09/21 02:27:14;;;;;;;5.20;4.40;;;11.80;1.00;;;;;;5012567;28;20454;-50
2021/09/21 02:29:41;;;;;;;5.80;3.80;;;11.60;1.00;;;;;;5009335;28;20324;-50
2021/09/21 02:32:08;;;;;;;7.33;4.10;;;11.60;1.00;;;;;;5010999;28;20600;-50
2021/09/21 02:34:35;;;;;;;4.67;3.87;;;11.70;1.00;;;;;;5009102;28;20697;-50
2021/09/21 02:37:01;;;;;;;5.60;4.40;;;11.80;1.00;;;;;;5010759;28;20653;-50
2021/09/21 02:39:28;;;;;;;5.47;4.50;;;11.70;1.00;;;;;;5010479;28;20256;-50
2021/09/21 02:41:55;;;;;;;5.53;4.10;;;11.60;1.00;;;;;;5014275;28;20238;-50
2021/09/21 02:44:22;;;;;;;6.27;3.90;;;11.50;99.90;;;;;;5008208;28;20255;-50
2021/09/21 02:46:50;;;;;;;5.13;4.27;;;11.60;1.00;;;;;;5011079;28;20240;-50
2021/09/21 02:49:17;;;;;;;6.67;4.00;;;11.70;99.90;;;;;;5013454;28;20270;-50
2021/09/21 02:51:44;;;;;;;6.17;4.40;;;11.80;1.00;;;;;;5011233;28;20232;-50
2021/09/21 02:54:11;;;;;;;8.73;4.53;;;11.60;1.00;;;;;;5011606;28;20252;-50
2021/09/21 02:56:38;;;;;;;5.43;4.43;;;11.50;1.00;;;;;;5009504;28;20238;-50
2021/09/21 02:59:05;;;;;;;5.87;4.30;;;11.40;99.90;;;;;;5008087;28;20242;-50
2021/09/21 03:01:31;;;;;;;8.13;4.87;;;11.40;27.00;;;;;;5012078;28;20241;-50
2021/09/21 03:04:03;;;;;;;6.43;4.30;;;11.40;1.00;;;;;;5006676;28;20781;-50
2021/09/21 03:06:37;;;;;;;7.43;4.37;;;11.50;99.90;;;;;;5012758;28;20229;-50
2021/09/21 03:09:14;;;;;;;5.57;4.07;;;11.40;4.00;;;;;;5016974;28;20642;-50
2021/09/21 03:11:58;;;;;;;5.60;3.80;;;11.50;1.00;;;;;;5010018;28;20691;-51
2021/09/21 03:17:19;;;;;;;6.67;4.57;;;11.50;1.00;;;;;;5011591;28;20240;-50
2021/09/21 03:19:46;;;;;;;5.20;4.10;;;11.70;1.00;;;;;;5010781;28;20321;-50
2021/09/21 03:22:13;;;;;;;6.37;4.50;;;11.70;1.00;;;;;;5010764;28;20659;-50
2021/09/21 03:24:39;;;;;;;6.70;4.37;;;11.70;1.00;;;;;;5009489;28;20323;-50
2021/09/21 03:27:06;;;;;;;4.77;4.27;;;11.80;1.00;;;;;;5013142;28;20196;-50
2021/09/21 03:29:33;;;;;;;6.37;4.30;;;11.80;1.00;;;;;;5013884;28;20581;-50
2021/09/21 03:32:00;;;;;;;6.77;5.10;;;11.80;1.00;;;;;;5008353;28;20300;-50
2021/09/21 03:34:27;;;;;;;7.73;4.70;;;11.80;1.00;;;;;;5011066;28;20625;-50
2021/09/21 03:36:54;;;;;;;7.13;4.90;;;11.50;1.00;;;;;;5008196;28;20298;-50
2021/09/21 03:39:21;;;;;;;6.23;4.80;;;11.40;1.00;;;;;;5010455;28;20245;-50
2021/09/21 03:41:48;;;;;;;6.53;4.97;;;11.50;1.00;;;;;;5009696;28;20301;-50
2021/09/21 03:44:15;;;;;;;8.17;4.97;;;11.40;99.90;;;;;;5014339;28;20317;-50
2021/09/21 03:46:42;;;;;;;6.10;4.30;;;11.50;99.90;;;;;;5009113;28;20225;-50
2021/09/21 03:49:09;;;;;;;5.43;4.57;;;11.50;99.90;;;;;;5006634;28;20290;-50
2021/09/21 03:51:36;;;;;;;7.13;5.10;;;11.60;1.00;;;;;;5007375;28;20284;-50
2021/09/21 03:54:04;;;;;;;6.33;5.10;;;11.50;99.90;;;;;;5012163;28;20238;-50
2021/09/21 03:56:31;;;;;;;6.63;5.00;;;11.50;1.00;;;;;;5005413;28;20752;-50
2021/09/21 03:58:58;;;;;;;6.57;5.03;;;11.50;1.00;;;;;;5007923;28;20265;-50
2021/09/21 04:01:25;;;;;;;5.97;4.70;;;11.60;1.00;;;;;;5010898;28;20245;-50
2021/09/21 04:03:52;;;;;;;6.57;4.57;;;11.60;1.00;;;;;;5006959;28;20282;-50
2021/09/21 04:06:18;;;;;;;7.23;4.73;;;11.60;1.00;;;;;;5002879;28;20217;-50
2021/09/21 04:08:45;;;;;;;6.70;4.90;;;11.60;49.60;;;;;;4998676;28;20278;-50
2021/09/21 04:11:12;;;;;;;6.30;4.53;;;11.50;99.90;;;;;;5008097;28;20309;-50
2021/09/21 04:13:39;;;;;;;8.73;5.20;;;11.60;1.00;;;;;;5012065;28;20251;-50
2021/09/21 04:16:06;;;;;;;5.87;4.30;;;11.50;1.00;;;;;;5007385;28;20692;-50
2021/09/21 04:18:32;;;;;;;7.50;5.07;;;11.40;1.00;;;;;;5012140;28;20280;-50
2021/09/21 04:20:59;;;;;;;7.57;4.90;;;11.40;99.90;;;;;;5010617;28;20684;-50
2021/09/21 04:23:26;;;;;;;5.90;4.97;;;11.40;36.90;;;;;;5007420;28;20249;-50
2021/09/21 04:25:53;;;;;;;5.60;4.57;;;11.30;99.90;;;;;;5005121;28;20297;-50
2021/09/21 04:28:21;;;;;;;7.73;5.27;;;11.40;1.00;;;;;;5009063;28;20311;-50
2021/09/21 04:30:52;;;;;;;6.47;4.73;;;11.40;99.90;;;;;;5009021;28;20396;-50
2021/09/21 04:33:20;;;;;;;7.63;5.00;;;11.30;1.00;;;;;;5008014;28;20222;-50
2021/09/21 04:35:47;;;;;;;5.70;5.03;;;11.30;1.00;;;;;;5006309;28;20309;-50
2021/09/21 04:38:14;;;;;;;9.60;5.47;;;11.30;99.90;;;;;;5006652;28;20289;-50
2021/09/21 04:40:40;;;;;;;6.60;4.87;;;11.20;45.40;;;;;;5007484;28;20625;-50
2021/09/21 04:43:07;;;;;;;6.37;4.60;;;11.30;1.00;;;;;;5010305;28;20450;-51
2021/09/21 04:45:36;;;;;;;9.53;5.90;;;11.30;1.00;;;;;;5009213;28;20410;-51
2021/09/21 04:48:04;;;;;;;9.43;5.63;;;11.20;1.00;;;;;;5005085;28;20638;-51
2021/09/21 04:50:31;;;;;;;7.73;5.73;;;11.00;1.00;;;;;;5002862;28;20281;-51
2021/09/21 04:52:58;;;;;;;7.77;5.57;;;11.00;1.00;;;;;;5005669;28;20297;-50
2021/09/21 04:55:25;;;;;;;7.30;5.47;;;11.00;1.00;;;;;;5008853;28;20294;-50
2021/09/21 04:57:51;;;;;;;7.43;5.97;;;11.00;1.00;;;;;;5008827;28;20249;-51
2021/09/21 05:00:18;;;;;;;7.90;5.73;;;11.00;1.00;;;;;;5006625;28;20299;-50
2021/09/21 05:02:45;;;;;;;7.60;5.30;;;10.90;1.00;;;;;;5004563;28;20241;-51
2021/09/21 05:05:13;;;;;;;5.87;5.07;;;11.10;1.00;;;;;;5006358;28;20213;-50
2021/09/21 05:07:40;;;;;;;6.37;5.70;;;11.30;1.00;;;;;;5009164;28;20617;-51
2021/09/21 05:10:07;;;;;;;7.57;4.37;;;11.30;99.90;;;;;;5012411;28;20201;-50
2021/09/21 05:12:35;;;;;;;6.37;4.67;;;11.40;1.00;;;;;;5008607;28;20234;-50
2021/09/21 05:15:03;;;;;;;6.23;5.20;;;11.50;1.00;;;;;;5007341;28;20212;-51
2021/09/21 05:17:30;;;;;;;11.40;6.00;;;11.50;99.90;;;;;;5008630;28;20295;-50
2021/09/21 05:19:57;;;;;;;6.73;4.83;;;11.40;99.90;;;;;;4972175;28;1077199;-51
2021/09/21 05:22:23;;;;;;;8.87;5.23;;;11.40;1.00;;;;;;5008255;28;20675;-50
2021/09/21 05:24:53;;;;;;;7.90;5.63;;;11.40;1.00;;;;;;5004149;28;20572;-50
2021/09/21 05:27:19;;;;;;;8.57;5.33;;;11.40;99.90;;;;;;5006656;28;20236;-50
2021/09/21 05:29:46;;;;;;;11.13;6.50;;;11.20;1.00;;;;;;5006750;28;20238;-50
2021/09/21 05:32:13;;;;;;;9.73;5.73;;;11.20;1.00;;;;;;5010289;28;20320;-51
2021/09/21 05:34:40;;;;;;;9.50;5.70;;;11.30;1.00;;;;;;5006055;28;20206;-50
2021/09/21 05:37:06;;;;;;;6.83;5.70;;;11.30;1.00;;;;;;5010371;28;20297;-51
2021/09/21 05:39:33;;;;;;;8.70;6.40;;;11.30;34.40;;;;;;5005266;28;20616;-51
2021/09/21 05:42:00;;;;;;;7.73;5.50;;;11.30;99.90;;;;;;5006854;28;20248;-51
2021/09/21 05:44:27;;;;;;;10.30;6.00;;;11.40;99.90;;;;;;5013750;28;20217;-51
2021/09/21 05:46:54;;;;;;;9.37;5.90;;;11.40;1.00;;;;;;5010845;28;20223;-51
2021/09/21 05:49:21;;;;;;;7.00;5.87;;;11.40;1.00;;;;;;5012094;28;20207;-51
2021/09/21 05:51:48;;;;;;;10.37;6.37;;;11.40;1.00;;;;;;5010103;28;20206;-51
2021/09/21 05:54:15;;;;;;;8.40;6.30;;;11.40;99.90;;;;;;5009169;28;20206;-51
2021/09/21 05:56:42;;;;;;;8.63;6.47;;;11.40;1.00;;;;;;5006037;28;20266;-51
2021/09/21 05:59:09;;;;;;;7.13;5.73;;;11.50;1.00;;;;;;5010619;28;20614;-51
2021/09/21 06:01:36;;;;;;;8.40;6.07;;;11.40;99.90;;;;;;5002245;28;20245;-51
2021/09/21 06:04:03;;;;;;;8.63;6.40;;;11.50;99.90;;;;;;5008500;28;20256;-51
2021/09/21 06:06:30;;;;;;;7.77;5.43;;;11.50;1.00;;;;;;5002398;28;20206;-51
2021/09/21 06:08:57;;;;;;;8.60;6.20;;;11.50;99.90;;;;;;5010188;28;20237;-51
2021/09/21 06:11:28;;;;;;;8.00;5.97;;;11.50;1.00;;;;;;5012633;28;20229;-51
2021/09/21 06:13:56;;;;;;;9.30;6.80;;;11.40;1.00;;;;;;5008930;28;20222;-51
2021/09/21 06:16:23;;;;;;;6.63;5.77;;;11.50;1.00;;;;;;5003365;28;20257;-51
2021/09/21 06:18:50;;;;;;;10.17;6.30;;;11.60;31.80;;;;;;5012557;28;20230;-51
2021/09/21 06:21:16;;;;;;;8.07;5.63;;;11.70;1.00;;;;;;5012060;28;20697;-51
2021/09/21 06:23:43;;;;;;;10.93;6.50;;;11.80;1.00;;;;;;5013751;28;20238;-51
2021/09/21 06:26:10;;;;;;;7.00;5.77;;;11.90;93.10;;;;;;5015685;28;20284;-51
2021/09/21 06:28:37;;;;;;;10.60;5.80;;;11.90;99.90;;;;;;5014076;28;20254;-51
2021/09/21 06:31:04;;;;;;;8.77;6.93;;;11.90;99.90;;;;;;4999724;28;20285;-51
2021/09/21 06:33:31;;;;;;;8.37;6.23;;;12.00;1.00;;;;;;5012210;28;20200;-52
2021/09/21 06:35:57;;;;;;;9.20;6.10;;;11.90;1.00;;;;;;5010334;28;20234;-51
2021/09/21 06:38:24;;;;;;;8.07;5.63;;;12.00;1.00;;;;;;5015548;28;20681;-51
2021/09/21 06:40:51;;;;;;;9.40;6.53;;;12.00;1.00;;;;;;5009262;28;20293;-51
2021/09/21 06:43:18;;;;;;;12.00;6.77;;;12.00;1.00;;;;;;5003563;28;20716;-51
2021/09/21 06:45:45;;;;;;;11.70;6.27;;;11.90;24.90;;;;;;4993176;28;20622;-51
2021/09/21 06:48:12;;;;;;;11.97;6.23;;;11.90;1.00;;;;;;4999305;28;20209;-51
2021/09/21 06:50:38;;;;;;;15.60;6.80;;;12.10;40.20;;;;;;4997205;28;20281;-51
2021/09/21 06:53:05;;;;;;;9.43;7.07;;;12.10;99.90;;;;;;4998711;28;20333;-51
2021/09/21 06:55:32;;;;;;;9.70;6.40;;;12.20;1.00;;;;;;4992807;28;20684;-51
2021/09/21 06:57:59;;;;;;;9.30;6.50;;;12.20;99.90;;;;;;4998415;28;20278;-50
2021/09/21 07:00:26;;;;;;;10.17;7.07;;;12.30;1.00;;;;;;5000592;28;20245;-50
2021/09/21 07:02:54;;;;;;;9.73;6.53;;;12.40;99.90;;;;;;5001035;28;20222;-51
2021/09/21 07:05:21;;;;;;;22.77;6.87;;;12.50;99.90;;;;;;4999968;28;20250;-51
2021/09/21 07:07:50;;;;;;;9.90;6.03;;;12.60;1.00;;;;;;4996981;28;20244;-51
2021/09/21 07:10:19;;;;;;;9.57;6.83;;;12.60;1.00;;;;;;4995527;28;20193;-51
2021/09/21 07:12:47;;;;;;;8.47;6.40;;;12.70;99.90;;;;;;5004647;28;20543;-51
2021/09/21 07:15:14;;;;;;;8.90;6.70;;;12.70;1.00;;;;;;5003182;28;20762;-51
2021/09/21 07:17:41;;;;;;;9.07;6.47;;;12.80;1.00;;;;;;5001907;28;20199;-51
2021/09/21 07:20:08;;;;;;;9.10;6.33;;;12.80;1.00;;;;;;5000642;28;21351;-51
2021/09/21 07:22:35;;;;;;;9.10;6.90;;;12.80;1.00;;;;;;5003606;28;20301;-51
2021/09/21 07:25:03;;;;;;;11.50;6.27;;;13.00;1.00;;;;;;5000779;28;20590;-51
2021/09/21 07:27:30;;;;;;;10.47;6.87;;;13.10;1.00;;;;;;4999601;28;20201;-51
2021/09/21 07:29:57;;;;;;;9.70;6.53;;;13.00;99.90;;;;;;4997289;28;20659;-51
2021/09/21 07:32:24;;;;;;;8.13;6.37;;;13.00;1.00;;;;;;5018566;28;20251;-51
2021/09/21 07:34:51;;;;;;;8.20;6.27;;;12.80;3.30;;;;;;4998251;28;20237;-52
2021/09/21 07:37:18;;;;;;;9.60;6.97;;;13.10;1.00;;;;;;4991863;28;20628;-51
2021/09/21 07:39:45;;;;;;;13.93;7.37;;;13.30;1.00;;;;;;4997933;28;20199;-51
2021/09/21 07:42:12;;;;;;;9.43;6.87;;;13.50;1.00;;;;;;5001120;28;20278;-51
2021/09/21 07:44:40;;;;;;;11.40;6.97;;;13.60;1.00;;;;;;5002377;28;20568;-51
2021/09/21 07:47:07;;;;;;;8.33;6.70;;;13.80;99.90;;;;;;4995600;28;20205;-51
2021/09/21 07:49:34;;;;;;;15.87;7.17;;;13.80;1.00;;;;;;4996411;28;20235;-51
2021/09/21 07:52:01;;;;;;;9.30;6.20;;;14.10;1.00;;;;;;5012920;28;20671;-51
2021/09/21 07:54:28;;;;;;;10.13;7.20;;;14.20;1.00;;;;;;4990046;28;20285;-51
2021/09/21 07:56:55;;;;;;;8.90;6.40;;;14.40;1.00;;;;;;4996747;28;20269;-51
2021/09/21 07:59:22;;;;;;;9.20;6.27;;;14.60;1.00;;;;;;5011536;28;20214;-51
2021/09/21 08:01:49;;;;;;;10.00;6.90;;;14.70;1.00;;;;;;4992672;28;20233;-52
2021/09/21 08:04:16;;;;;;;12.40;6.87;;;14.70;99.90;;;;;;5001658;28;20592;-51
2021/09/21 08:06:43;;;;;;;10.47;7.07;;;14.90;99.90;;;;;;5000807;28;20209;-51
2021/09/21 08:09:10;;;;;;;14.37;6.47;;;15.00;1.00;;;;;;5002305;28;20598;-51
2021/09/21 08:11:37;;;;;;;13.10;6.67;;;15.10;1.00;;;;;;5006287;28;20258;-51
2021/09/21 08:14:05;;;;;;;8.10;6.07;;;15.20;1.00;;;;;;5002398;28;20224;-51
2021/09/21 08:16:33;;;;;;;6.53;4.80;;;15.50;1.00;;;;;;5014878;28;20224;-51
2021/09/21 08:19:01;;;;;;;10.97;6.30;;;15.60;99.90;;;;;;5001323;28;20229;-51
2021/09/21 08:21:28;;;;;;;8.30;6.10;;;15.50;99.90;;;;;;4993698;28;20235;-51
2021/09/21 08:23:55;;;;;;;7.93;5.50;;;15.70;1.00;;;;;;5007851;28;20200;-51
2021/09/21 08:26:22;;;;;;;7.17;5.90;;;15.80;1.00;;;;;;4997888;28;20229;-51
2021/09/21 08:28:49;;;;;;;6.70;5.00;;;15.70;1.00;;;;;;5001367;28;20225;-51
2021/09/21 08:31:16;;;;;;;6.67;4.63;;;16.10;1.00;;;;;;4997059;28;20528;-52
2021/09/21 08:33:47;;;;;;;6.33;4.63;;;16.20;1.00;;;;;;5006191;28;20565;-51
2021/09/21 08:36:21;;;;;;;10.97;5.17;;;16.40;1.00;;;;;;4998012;28;20205;-51
2021/09/21 08:38:50;;;;;;;6.53;5.30;;;16.80;1.00;;;;;;4999756;28;20201;-51
2021/09/21 08:41:17;;;;;;;8.50;5.00;;;16.80;99.90;;;;;;4995647;28;20226;-52
2021/09/21 08:43:43;;;;;;;8.53;5.07;;;17.00;99.90;;;;;;4995670;28;20204;-51
2021/09/21 08:46:10;;;;;;;6.63;3.77;;;16.90;99.90;;;;;;4999240;28;20275;-51
2021/09/21 08:48:38;;;;;;;5.47;4.23;;;16.50;99.90;;;;;;4998016;28;20275;-51
2021/09/21 08:51:05;;;;;;;5.20;4.33;;;16.70;94.00;;;;;;5001472;28;20269;-51
2021/09/21 08:53:32;;;;;;;4.00;2.97;;;16.80;34.70;;;;;;5010297;28;20659;-52
2021/09/21 08:56:02;;;;;;;6.13;3.37;;;17.10;1.00;;;;;;4993708;28;20264;-51
2021/09/21 08:58:29;;;;;;;6.90;4.23;;;17.20;1.00;;;;;;4998791;28;20337;-52
2021/09/21 09:00:56;;;;;;;4.43;3.27;;;17.00;1.00;;;;;;5001232;28;20245;-51
2021/09/21 09:03:27;;;;;;;4.50;3.30;;;17.10;1.00;;;;;;4997815;28;20262;-51
2021/09/21 09:05:54;;;;;;;4.23;3.53;;;17.40;1.00;;;;;;5003929;28;20226;-51
2021/09/21 09:08:36;;;;;;;5.43;3.33;;;17.30;1.00;;;;;;4997708;28;20315;-51
2021/09/21 09:11:09;;;;;;;5.00;3.90;;;17.50;1.00;;;;;;4997550;28;20248;-51
2021/09/21 09:13:39;;;;;;;4.47;3.83;;;17.30;1.00;;;;;;4996328;28;20244;-51
2021/09/21 09:16:12;;;;;;;3.97;3.13;;;17.10;99.90;;;;;;4993657;28;20203;-51
2021/09/21 09:18:40;;;;;;;4.90;2.93;;;17.40;99.90;;;;;;4991760;28;20327;-51
2021/09/21 09:21:08;;;;;;;3.57;2.50;;;17.30;99.90;;;;;;5006188;28;20316;-51
2021/09/21 09:23:42;;;;;;;5.27;2.57;;;17.20;99.90;;;;;;4997071;28;20370;-51
2021/09/21 09:26:09;;;;;;;4.07;3.17;;;17.30;99.90;;;;;;4999497;28;20256;-51
2021/09/21 09:28:35;;;;;;;3.67;3.30;;;17.50;99.90;;;;;;4993891;28;20222;-51
2021/09/21 09:31:02;;;;;;;4.27;2.63;;;17.70;99.90;;;;;;5012000;28;20224;-51
2021/09/21 09:33:33;;;;;;;4.70;2.87;;;17.90;99.90;;;;;;4994575;28;20220;-51
2021/09/21 09:36:00;;;;;;;4.53;2.93;;;17.80;99.90;;;;;;5002523;28;20295;-51
2021/09/21 09:38:27;;;;;;;3.13;2.73;;;18.20;99.90;;;;;;4998286;28;20216;-51
2021/09/21 09:40:56;;;;;;;3.57;2.67;;;17.80;99.90;;;;;;4998243;28;20213;-52
2021/09/21 09:43:25;;;;;;;3.13;2.50;;;17.80;99.90;;;;;;5000733;28;20733;-51
2021/09/21 09:45:55;;;;;;;4.20;3.00;;;17.90;99.90;;;;;;5005837;28;20245;-52
2021/09/21 09:48:24;;;;;;;3.23;2.50;;;17.50;99.90;;;;;;5005169;28;20208;-51
2021/09/21 09:50:54;;;;;;;3.03;2.13;;;17.40;99.90;;;;;;5008588;28;20376;-52
2021/09/21 09:53:24;;;;;;;3.77;2.33;;;17.70;99.90;;;;;;5004417;28;20335;-51
2021/09/21 09:55:56;;;;;;;4.27;3.60;;;17.70;99.90;;;;;;5000322;28;20212;-51
2021/09/21 09:58:27;;;;;;;2.93;2.43;;;17.70;99.90;;;;;;5009538;28;20205;-51
2021/09/21 10:00:54;;;;;;;3.40;2.47;;;17.90;99.90;;;;;;5002876;28;20237;-52
2021/09/21 10:03:22;;;;;;;3.57;2.40;;;17.70;99.90;;;;;;5006323;28;20320;-52
2021/09/21 10:05:51;;;;;;;2.53;2.33;;;17.90;92.20;;;;;;5002535;28;20797;-52
2021/09/21 10:08:18;;;;;;;3.33;2.30;;;18.00;19.80;;;;;;5003307;28;20199;-51
2021/09/21 10:10:49;;;;;;;4.37;2.97;;;17.80;99.90;;;;;;5000823;28;20193;-51
2021/09/21 10:13:17;;;;;;;4.57;2.87;;;17.90;99.90;;;;;;5006889;28;20293;-51
2021/09/21 10:15:46;;;;;;;3.50;2.37;;;18.00;99.90;;;;;;5005562;28;20252;-51
2021/09/21 10:18:20;;;;;;;3.63;2.40;;;18.10;99.90;;;;;;4997113;28;20273;-51
2021/09/21 10:20:59;;;;;;;4.33;3.30;;;18.00;99.90;;;;;;5019659;28;20327;-51
2021/09/21 10:23:34;;;;;;;3.07;2.70;;;17.90;99.90;;;;;;5003965;28;20247;-51
2021/09/21 10:26:19;;;;;;;4.83;2.80;;;17.90;99.90;;;;;;5007648;28;20250;-51
2021/09/21 10:28:48;;;;;;;5.67;2.60;;;17.10;99.90;;;;;;5006397;28;20257;-51
2021/09/21 10:31:20;;;;;;;3.33;2.37;;;17.40;99.90;;;;;;5005931;28;20203;-51
2021/09/21 10:33:48;;;;;;;3.67;2.47;;;17.60;99.90;;;;;;4998168;28;20780;-51
2021/09/21 10:36:16;;;;;;;5.83;2.20;;;17.80;99.90;;;;;;4997526;28;20236;-51
2021/09/21 10:39:12;;;;;;;3.50;1.80;;;18.00;92.90;;;;;;5003777;28;20233;-51
2021/09/21 10:42:00;;;;;;;2.73;1.87;;;17.70;1.00;;;;;;4991187;28;20345;-51
2021/09/21 10:44:28;;;;;;;5.30;1.77;;;17.80;1.00;;;;;;5000411;28;20266;-51
2021/09/21 10:47:03;;;;;;;3.57;1.77;;;17.70;1.00;;;;;;4998634;28;20739;-51
2021/09/21 10:49:35;;;;;;;2.17;1.63;;;17.90;1.00;;;;;;4998758;28;20223;-51
2021/09/21 10:52:08;;;;;;;2.47;2.07;;;17.80;1.00;;;;;;4999718;28;20203;-51
2021/09/21 10:54:42;;;;;;;3.13;1.90;;;17.90;1.00;;;;;;4994087;28;20672;-51
2021/09/21 10:57:11;;;;;;;1.73;1.60;;;18.00;30.80;;;;;;4993335;28;20245;-52
2021/09/21 10:59:39;;;;;;;2.17;1.80;;;17.90;1.00;;;;;;5007149;28;20296;-51
2021/09/21 11:02:08;;;;;;;3.10;2.13;;;18.00;1.00;;;;;;5004025;28;20200;-51
2021/09/21 11:04:40;;;;;;;2.70;2.03;;;17.90;1.00;;;;;;5011865;28;20291;-51
2021/09/21 11:07:07;;;;;;;3.93;2.50;;;18.00;1.00;;;;;;5002912;28;20263;-51
2021/09/21 11:09:34;;;;;;;2.67;2.03;;;18.00;1.00;;;;;;4998647;28;20558;-51
2021/09/21 11:12:06;;;;;;;3.13;2.10;;;18.10;1.00;;;;;;5004458;28;20270;-52
2021/09/21 11:14:39;;;;;;;5.70;2.63;;;18.10;2.70;;;;;;5001212;28;20620;-52
2021/09/21 11:17:07;;;;;;;2.77;2.30;;;18.20;1.00;;;;;;4994138;28;20294;-52
2021/09/21 11:19:35;;;;;;;10.67;3.27;;;18.50;1.00;;;;;;5000457;28;20276;-50
2021/09/21 11:22:08;;;;;;;2.57;2.10;;;18.60;1.00;;;;;;5003297;28;20296;-51
2021/09/21 11:24:38;;;;;;;2.50;2.20;;;18.80;1.00;;;;;;5007064;28;20206;-51
2021/09/21 11:27:08;;;;;;;3.67;2.00;;;18.80;1.00;;;;;;5003573;28;20216;-51
2021/09/21 11:29:41;;;;;;;3.00;2.20;;;18.90;1.00;;;;;;5005958;28;20202;-51
2021/09/21 11:32:19;;;;;;;2.40;2.10;;;19.10;1.00;;;;;;5003494;28;20368;-51
2021/09/21 11:34:58;;;;;;;2.40;2.20;;;19.00;1.00;;;;;;5007771;28;20210;-51
2021/09/21 11:37:26;;;;;;;4.90;2.43;;;18.80;1.00;;;;;;5006387;28;20203;-51
2021/09/21 11:39:53;;;;;;;2.40;2.10;;;19.10;1.00;;;;;;5004603;28;20682;-51
2021/09/21 11:42:31;;;;;;;3.07;1.90;;;19.10;1.00;;;;;;5003589;28;20206;-51
2021/09/21 11:45:05;;;;;;;2.00;1.63;;;19.00;1.00;;;;;;4996000;28;20291;-51
2021/09/21 11:47:39;;;;;;;3.37;1.93;;;19.30;1.00;;;;;;4993395;28;20195;-51
2021/09/21 11:50:09;;;;;;;3.17;2.00;;;20.00;1.00;;;;;;5004799;28;20632;-51
2021/09/21 11:52:36;;;;;;;2.53;2.13;;;20.10;1.00;;;;;;5007160;28;20609;-51
2021/09/21 11:55:11;;;;;;;3.70;2.00;;;20.00;1.00;;;;;;4999639;28;20354;-51
2021/09/21 11:57:38;;;;;;;2.60;2.00;;;20.10;1.00;;;;;;5006295;28;20222;-51
2021/09/21 12:00:06;;;;;;;2.57;2.03;;;20.40;1.00;;;;;;5006518;28;20587;-51
2021/09/21 12:02:36;;;;;;;2.87;2.07;;;20.50;1.00;;;;;;5003770;28;20283;-50
2021/09/21 12:05:03;;;;;;;2.67;1.90;;;20.80;1.00;;;;;;4999397;28;20831;-51
2021/09/21 12:07:30;;;;;;;2.77;1.80;;;21.00;1.00;;;;;;4995990;28;20250;-51
2021/09/21 12:09:57;;;;;;;2.10;1.87;;;21.00;1.00;;;;;;4993533;28;20666;-51
2021/09/21 12:12:24;;;;;;;1.80;1.60;;;21.30;1.00;;;;;;4994928;28;20310;-50
2021/09/21 12:14:58;;;;;;;3.73;2.00;;;21.40;1.00;;;;;;4998817;28;20300;-51
2021/09/21 12:17:26;;;;;;;4.63;2.30;;;21.70;1.00;;;;;;4996386;28;20675;-51
2021/09/21 12:20:00;;;;;;;2.40;1.90;;;21.00;1.00;;;;;;4998962;28;20237;-51
2021/09/21 12:22:28;;;;;;;5.77;1.87;;;21.20;1.00;;;;;;5006557;28;20204;-51
2021/09/21 12:25:06;;;;;;;3.07;1.90;;;21.60;1.00;;;;;;4995224;28;20643;-51
2021/09/21 12:27:35;;;;;;;2.07;1.47;;;22.00;1.00;;;;;;5006126;28;20267;-51
2021/09/21 12:30:06;;;;;;;4.00;1.93;;;22.20;1.00;;;;;;5001088;28;20186;-51
2021/09/21 12:32:34;;;;;;;4.43;2.73;;;22.30;1.00;;;;;;4996289;28;20218;-51
2021/09/21 12:35:05;;;;;;;2.30;1.83;;;21.90;1.00;;;;;;5000032;28;20275;-51
2021/09/21 12:37:42;;;;;;;2.20;1.97;;;21.30;1.00;;;;;;4997012;28;20621;-51
2021/09/21 12:40:14;;;;;;;3.47;1.63;;;20.70;1.00;;;;;;4992708;28;20633;-51
2021/09/21 12:42:42;;;;;;;2.07;1.70;;;20.30;1.00;;;;;;5003786;28;20214;-51
2021/09/21 12:45:11;;;;;;;2.27;1.70;;;20.20;1.00;;;;;;5007161;28;20267;-51
2021/09/21 12:47:39;;;;;;;1.70;1.57;;;20.20;1.00;;;;;;5001583;28;20206;-51
2021/09/21 12:50:17;;;;;;;1.87;1.40;;;20.60;1.00;;;;;;4995215;28;20209;-51
2021/09/21 12:52:56;;;;;;;2.27;1.47;;;20.90;1.00;;;;;;4997683;28;20258;-51
2021/09/21 12:55:34;;;;;;;1.97;1.33;;;21.00;1.00;;;;;;4997056;28;20256;-50
2021/09/21 12:58:03;;;;;;;1.80;1.60;;;21.10;1.00;;;;;;4995985;28;20629;-51
2021/09/21 13:00:36;;;;;;;2.33;1.40;;;21.10;1.00;;;;;;4996921;28;20267;-51
2021/09/21 13:03:04;;;;;;;1.60;1.50;;;21.00;1.00;;;;;;4997593;28;20208;-50
2021/09/21 13:05:34;;;;;;;3.87;1.50;;;21.10;1.00;;;;;;4996690;28;20193;-51
2021/09/21 13:08:01;;;;;;;2.27;1.60;;;20.70;1.00;;;;;;4999118;28;20682;-51
2021/09/21 13:10:29;;;;;;;3.00;1.57;;;20.30;1.00;;;;;;4999703;28;20200;-50